sensor_id;sensor_type;location;lat;lon;timestamp;P1;durP1;ratioP1;P2;durP2;ratioP2
12756;SDS011;31601;48.042;12.240;2023-07-20T00:00:39;9.98;;;5.97;;
12756;SDS011;31601;48.042;12.240;2023-07-20T00:03:12;13.15;;;6.80;;
12756;SDS011;31601;48.042;12.240;2023-07-20T00:05:42;16.85;;;7.45;;
12756;SDS011;31601;48.042;12.240;2023-07-20T00:08:09;18.67;;;8.88;;
12756;SDS011;31601;48.042;12.240;2023-07-20T00:10:35;9.85;;;6.63;;
12756;SDS011;31601;48.042;12.240;2023-07-20T00:13:03;12.68;;;6.57;;
12756;SDS011;31601;48.042;12.240;2023-07-20T00:15:29;10.98;;;7.18;;
12756;SDS011;31601;48.042;12.240;2023-07-20T00:17:56;9.23;;;7.28;;
12756;SDS011;31601;48.042;12.240;2023-07-20T00:20:23;8.43;;;6.25;;
12756;SDS011;31601;48.042;12.240;2023-07-20T00:22:50;11.35;;;6.07;;
12756;SDS011;31601;48.042;12.240;2023-07-20T00:25:17;8.30;;;6.70;;
12756;SDS011;31601;48.042;12.240;2023-07-20T00:27:43;7.82;;;6.57;;
12756;SDS011;31601;48.042;12.240;2023-07-20T00:30:12;8.40;;;6.82;;
12756;SDS011;31601;48.042;12.240;2023-07-20T00:32:39;10.95;;;7.00;;
12756;SDS011;31601;48.042;12.240;2023-07-20T00:35:05;11.98;;;7.85;;
12756;SDS011;31601;48.042;12.240;2023-07-20T00:37:32;10.50;;;7.55;;
12756;SDS011;31601;48.042;12.240;2023-07-20T00:39:59;10.27;;;6.60;;
12756;SDS011;31601;48.042;12.240;2023-07-20T00:42:25;9.90;;;6.72;;
12756;SDS011;31601;48.042;12.240;2023-07-20T00:44:51;11.80;;;7.15;;
12756;SDS011;31601;48.042;12.240;2023-07-20T00:47:19;12.50;;;7.10;;
12756;SDS011;31601;48.042;12.240;2023-07-20T00:49:46;9.98;;;6.75;;
12756;SDS011;31601;48.042;12.240;2023-07-20T00:52:13;10.93;;;7.07;;
12756;SDS011;31601;48.042;12.240;2023-07-20T00:54:40;10.05;;;6.65;;
12756;SDS011;31601;48.042;12.240;2023-07-20T00:57:07;12.40;;;7.13;;
12756;SDS011;31601;48.042;12.240;2023-07-20T00:59:34;10.40;;;6.70;;
12756;SDS011;31601;48.042;12.240;2023-07-20T01:02:01;11.38;;;7.03;;
12756;SDS011;31601;48.042;12.240;2023-07-20T01:04:28;8.90;;;6.80;;
12756;SDS011;31601;48.042;12.240;2023-07-20T01:06:58;11.25;;;6.90;;
12756;SDS011;31601;48.042;12.240;2023-07-20T01:09:31;8.73;;;6.20;;
12756;SDS011;31601;48.042;12.240;2023-07-20T01:12:04;9.02;;;6.45;;
12756;SDS011;31601;48.042;12.240;2023-07-20T01:14:34;8.45;;;6.72;;
12756;SDS011;31601;48.042;12.240;2023-07-20T01:17:01;8.48;;;5.90;;
12756;SDS011;31601;48.042;12.240;2023-07-20T01:19:29;8.02;;;5.88;;
12756;SDS011;31601;48.042;12.240;2023-07-20T01:21:57;11.20;;;6.15;;
12756;SDS011;31601;48.042;12.240;2023-07-20T01:27:45;6.07;;;5.20;;
12756;SDS011;31601;48.042;12.240;2023-07-20T01:30:34;8.90;;;5.97;;
12756;SDS011;31601;48.042;12.240;2023-07-20T01:33:11;9.88;;;5.57;;
12756;SDS011;31601;48.042;12.240;2023-07-20T01:35:39;6.10;;;5.15;;
12756;SDS011;31601;48.042;12.240;2023-07-20T01:38:09;8.43;;;5.22;;
12756;SDS011;31601;48.042;12.240;2023-07-20T01:40:36;7.70;;;4.45;;
12756;SDS011;31601;48.042;12.240;2023-07-20T01:43:03;9.15;;;5.65;;
12756;SDS011;31601;48.042;12.240;2023-07-20T01:45:29;8.82;;;5.30;;
12756;SDS011;31601;48.042;12.240;2023-07-20T01:47:56;10.25;;;4.95;;
12756;SDS011;31601;48.042;12.240;2023-07-20T01:50:24;8.30;;;5.60;;
12756;SDS011;31601;48.042;12.240;2023-07-20T01:52:50;6.60;;;5.15;;
12756;SDS011;31601;48.042;12.240;2023-07-20T01:55:17;6.20;;;5.13;;
12756;SDS011;31601;48.042;12.240;2023-07-20T01:57:43;6.95;;;4.97;;
12756;SDS011;31601;48.042;12.240;2023-07-20T02:00:10;8.35;;;4.75;;
12756;SDS011;31601;48.042;12.240;2023-07-20T02:02:37;10.18;;;6.18;;
12756;SDS011;31601;48.042;12.240;2023-07-20T02:05:03;7.75;;;5.32;;
12756;SDS011;31601;48.042;12.240;2023-07-20T02:07:32;7.18;;;5.35;;
12756;SDS011;31601;48.042;12.240;2023-07-20T02:09:58;9.20;;;5.63;;
12756;SDS011;31601;48.042;12.240;2023-07-20T02:12:24;8.10;;;5.40;;
12756;SDS011;31601;48.042;12.240;2023-07-20T02:14:51;11.23;;;5.85;;
12756;SDS011;31601;48.042;12.240;2023-07-20T02:17:18;8.90;;;5.28;;
12756;SDS011;31601;48.042;12.240;2023-07-20T02:19:44;7.95;;;5.47;;
12756;SDS011;31601;48.042;12.240;2023-07-20T02:22:10;8.63;;;4.95;;
12756;SDS011;31601;48.042;12.240;2023-07-20T02:24:38;7.30;;;4.90;;
12756;SDS011;31601;48.042;12.240;2023-07-20T02:27:05;9.98;;;5.32;;
12756;SDS011;31601;48.042;12.240;2023-07-20T02:29:32;7.90;;;4.97;;
12756;SDS011;31601;48.042;12.240;2023-07-20T02:31:59;8.98;;;5.03;;
12756;SDS011;31601;48.042;12.240;2023-07-20T02:34:25;9.38;;;4.75;;
12756;SDS011;31601;48.042;12.240;2023-07-20T02:36:51;8.52;;;4.63;;
12756;SDS011;31601;48.042;12.240;2023-07-20T02:39:19;6.40;;;4.75;;
12756;SDS011;31601;48.042;12.240;2023-07-20T02:41:48;6.57;;;4.35;;
12756;SDS011;31601;48.042;12.240;2023-07-20T02:44:14;5.35;;;4.55;;
12756;SDS011;31601;48.042;12.240;2023-07-20T02:46:41;8.00;;;5.07;;
12756;SDS011;31601;48.042;12.240;2023-07-20T02:49:07;15.27;;;5.28;;
12756;SDS011;31601;48.042;12.240;2023-07-20T02:51:33;6.72;;;4.50;;
12756;SDS011;31601;48.042;12.240;2023-07-20T02:54:00;9.52;;;4.70;;
12756;SDS011;31601;48.042;12.240;2023-07-20T02:56:26;8.63;;;5.00;;
12756;SDS011;31601;48.042;12.240;2023-07-20T02:58:54;7.38;;;4.63;;
12756;SDS011;31601;48.042;12.240;2023-07-20T03:01:20;11.30;;;4.93;;
12756;SDS011;31601;48.042;12.240;2023-07-20T03:03:48;7.97;;;4.43;;
12756;SDS011;31601;48.042;12.240;2023-07-20T03:06:14;6.80;;;4.18;;
12756;SDS011;31601;48.042;12.240;2023-07-20T03:08:42;7.72;;;4.43;;
12756;SDS011;31601;48.042;12.240;2023-07-20T03:11:12;7.63;;;4.68;;
12756;SDS011;31601;48.042;12.240;2023-07-20T03:13:39;11.13;;;4.80;;
12756;SDS011;31601;48.042;12.240;2023-07-20T03:16:07;7.78;;;4.82;;
12756;SDS011;31601;48.042;12.240;2023-07-20T03:18:37;9.90;;;4.82;;
12756;SDS011;31601;48.042;12.240;2023-07-20T03:21:04;6.55;;;4.57;;
12756;SDS011;31601;48.042;12.240;2023-07-20T03:23:31;10.20;;;5.30;;
12756;SDS011;31601;48.042;12.240;2023-07-20T03:25:57;8.93;;;4.90;;
12756;SDS011;31601;48.042;12.240;2023-07-20T03:28:24;6.88;;;5.40;;
12756;SDS011;31601;48.042;12.240;2023-07-20T03:30:52;10.77;;;5.18;;
12756;SDS011;31601;48.042;12.240;2023-07-20T03:33:20;10.70;;;6.22;;
12756;SDS011;31601;48.042;12.240;2023-07-20T03:35:47;8.13;;;5.05;;
12756;SDS011;31601;48.042;12.240;2023-07-20T03:38:14;9.05;;;5.35;;
12756;SDS011;31601;48.042;12.240;2023-07-20T03:40:48;9.52;;;5.85;;
12756;SDS011;31601;48.042;12.240;2023-07-20T03:43:15;8.02;;;5.53;;
12756;SDS011;31601;48.042;12.240;2023-07-20T03:45:42;14.80;;;5.32;;
12756;SDS011;31601;48.042;12.240;2023-07-20T03:48:08;8.02;;;5.43;;
12756;SDS011;31601;48.042;12.240;2023-07-20T03:50:37;13.05;;;6.03;;
12756;SDS011;31601;48.042;12.240;2023-07-20T03:53:03;8.90;;;5.20;;
12756;SDS011;31601;48.042;12.240;2023-07-20T03:55:30;7.70;;;5.43;;
12756;SDS011;31601;48.042;12.240;2023-07-20T03:57:56;7.25;;;5.07;;
12756;SDS011;31601;48.042;12.240;2023-07-20T04:00:23;9.57;;;5.60;;
12756;SDS011;31601;48.042;12.240;2023-07-20T04:02:49;12.68;;;5.32;;
12756;SDS011;31601;48.042;12.240;2023-07-20T04:05:16;8.20;;;4.97;;
12756;SDS011;31601;48.042;12.240;2023-07-20T04:07:44;7.20;;;4.95;;
12756;SDS011;31601;48.042;12.240;2023-07-20T04:10:10;7.43;;;5.03;;
12756;SDS011;31601;48.042;12.240;2023-07-20T04:12:37;7.68;;;5.07;;
12756;SDS011;31601;48.042;12.240;2023-07-20T04:15:04;10.75;;;5.40;;
12756;SDS011;31601;48.042;12.240;2023-07-20T04:17:31;8.07;;;5.40;;
12756;SDS011;31601;48.042;12.240;2023-07-20T04:19:58;8.40;;;5.57;;
12756;SDS011;31601;48.042;12.240;2023-07-20T04:22:24;8.07;;;4.55;;
12756;SDS011;31601;48.042;12.240;2023-07-20T04:24:53;11.15;;;5.25;;
12756;SDS011;31601;48.042;12.240;2023-07-20T04:27:20;5.90;;;4.15;;
12756;SDS011;31601;48.042;12.240;2023-07-20T04:29:46;4.60;;;3.30;;
12756;SDS011;31601;48.042;12.240;2023-07-20T04:32:13;8.88;;;3.58;;
12756;SDS011;31601;48.042;12.240;2023-07-20T04:34:40;8.20;;;4.03;;
12756;SDS011;31601;48.042;12.240;2023-07-20T04:37:06;6.40;;;3.95;;
12756;SDS011;31601;48.042;12.240;2023-07-20T04:39:33;6.80;;;3.88;;
12756;SDS011;31601;48.042;12.240;2023-07-20T04:42:01;6.47;;;3.15;;
12756;SDS011;31601;48.042;12.240;2023-07-20T04:44:27;10.25;;;3.90;;
12756;SDS011;31601;48.042;12.240;2023-07-20T04:46:53;7.75;;;3.90;;
12756;SDS011;31601;48.042;12.240;2023-07-20T04:49:20;5.50;;;3.38;;
12756;SDS011;31601;48.042;12.240;2023-07-20T04:51:46;10.18;;;3.97;;
12756;SDS011;31601;48.042;12.240;2023-07-20T04:54:13;8.65;;;3.97;;
12756;SDS011;31601;48.042;12.240;2023-07-20T04:56:39;6.15;;;3.40;;
12756;SDS011;31601;48.042;12.240;2023-07-20T04:59:07;6.03;;;4.15;;
12756;SDS011;31601;48.042;12.240;2023-07-20T05:01:34;11.75;;;4.10;;
12756;SDS011;31601;48.042;12.240;2023-07-20T05:04:00;7.55;;;3.00;;
12756;SDS011;31601;48.042;12.240;2023-07-20T05:06:26;6.13;;;3.13;;
12756;SDS011;31601;48.042;12.240;2023-07-20T05:08:53;6.50;;;3.20;;
12756;SDS011;31601;48.042;12.240;2023-07-20T05:11:19;6.15;;;3.08;;
12756;SDS011;31601;48.042;12.240;2023-07-20T05:13:46;4.95;;;2.95;;
12756;SDS011;31601;48.042;12.240;2023-07-20T05:16:14;5.30;;;3.45;;
12756;SDS011;31601;48.042;12.240;2023-07-20T05:18:40;6.30;;;3.25;;
12756;SDS011;31601;48.042;12.240;2023-07-20T05:21:06;3.88;;;3.05;;
12756;SDS011;31601;48.042;12.240;2023-07-20T05:23:33;6.28;;;2.95;;
12756;SDS011;31601;48.042;12.240;2023-07-20T05:26:00;6.85;;;3.22;;
12756;SDS011;31601;48.042;12.240;2023-07-20T05:28:26;5.05;;;2.80;;
12756;SDS011;31601;48.042;12.240;2023-07-20T05:30:53;3.65;;;2.58;;
12756;SDS011;31601;48.042;12.240;2023-07-20T05:33:21;8.32;;;3.10;;
12756;SDS011;31601;48.042;12.240;2023-07-20T05:35:47;3.22;;;2.30;;
12756;SDS011;31601;48.042;12.240;2023-07-20T05:38:14;4.05;;;2.47;;
12756;SDS011;31601;48.042;12.240;2023-07-20T05:40:41;3.70;;;2.42;;
12756;SDS011;31601;48.042;12.240;2023-07-20T05:43:08;5.65;;;2.60;;
12756;SDS011;31601;48.042;12.240;2023-07-20T05:45:34;5.55;;;2.58;;
12756;SDS011;31601;48.042;12.240;2023-07-20T05:48:01;4.93;;;2.45;;
12756;SDS011;31601;48.042;12.240;2023-07-20T05:50:28;4.30;;;2.30;;
12756;SDS011;31601;48.042;12.240;2023-07-20T05:52:55;5.35;;;2.30;;
12756;SDS011;31601;48.042;12.240;2023-07-20T05:55:21;5.47;;;2.40;;
12756;SDS011;31601;48.042;12.240;2023-07-20T05:57:48;3.72;;;2.40;;
12756;SDS011;31601;48.042;12.240;2023-07-20T06:00:15;8.07;;;2.20;;
12756;SDS011;31601;48.042;12.240;2023-07-20T06:02:44;3.50;;;2.10;;
12756;SDS011;31601;48.042;12.240;2023-07-20T06:05:11;4.70;;;2.63;;
12756;SDS011;31601;48.042;12.240;2023-07-20T06:07:39;5.57;;;2.33;;
12756;SDS011;31601;48.042;12.240;2023-07-20T06:10:05;3.53;;;2.15;;
12756;SDS011;31601;48.042;12.240;2023-07-20T06:12:32;8.48;;;2.25;;
12756;SDS011;31601;48.042;12.240;2023-07-20T06:15:01;5.07;;;2.38;;
12756;SDS011;31601;48.042;12.240;2023-07-20T06:17:28;6.07;;;2.75;;
12756;SDS011;31601;48.042;12.240;2023-07-20T06:19:54;5.18;;;2.00;;
12756;SDS011;31601;48.042;12.240;2023-07-20T06:22:21;4.55;;;1.83;;
12756;SDS011;31601;48.042;12.240;2023-07-20T06:24:48;3.22;;;1.92;;
12756;SDS011;31601;48.042;12.240;2023-07-20T06:27:15;4.25;;;2.30;;
12756;SDS011;31601;48.042;12.240;2023-07-20T06:29:41;16.20;;;3.05;;
12756;SDS011;31601;48.042;12.240;2023-07-20T06:32:07;8.43;;;2.60;;
12756;SDS011;31601;48.042;12.240;2023-07-20T06:34:34;3.60;;;2.22;;
12756;SDS011;31601;48.042;12.240;2023-07-20T06:37:03;7.03;;;2.60;;
12756;SDS011;31601;48.042;12.240;2023-07-20T06:39:30;11.65;;;2.70;;
12756;SDS011;31601;48.042;12.240;2023-07-20T06:41:58;5.03;;;1.92;;
12756;SDS011;31601;48.042;12.240;2023-07-20T06:44:24;6.25;;;2.10;;
12756;SDS011;31601;48.042;12.240;2023-07-20T06:46:50;3.95;;;2.45;;
12756;SDS011;31601;48.042;12.240;2023-07-20T06:49:23;4.50;;;1.80;;
12756;SDS011;31601;48.042;12.240;2023-07-20T06:51:50;3.85;;;2.35;;
12756;SDS011;31601;48.042;12.240;2023-07-20T06:54:17;11.63;;;2.88;;
12756;SDS011;31601;48.042;12.240;2023-07-20T06:56:43;7.75;;;2.50;;
12756;SDS011;31601;48.042;12.240;2023-07-20T06:59:11;6.45;;;2.42;;
12756;SDS011;31601;48.042;12.240;2023-07-20T07:01:38;3.10;;;1.75;;
12756;SDS011;31601;48.042;12.240;2023-07-20T07:04:05;3.17;;;2.25;;
12756;SDS011;31601;48.042;12.240;2023-07-20T07:06:31;4.97;;;2.70;;
12756;SDS011;31601;48.042;12.240;2023-07-20T07:08:58;3.13;;;2.33;;
12756;SDS011;31601;48.042;12.240;2023-07-20T07:11:24;6.53;;;2.45;;
12756;SDS011;31601;48.042;12.240;2023-07-20T07:13:51;10.00;;;2.92;;
12756;SDS011;31601;48.042;12.240;2023-07-20T07:16:18;5.35;;;2.60;;
12756;SDS011;31601;48.042;12.240;2023-07-20T07:18:45;4.40;;;2.70;;
12756;SDS011;31601;48.042;12.240;2023-07-20T07:21:11;3.75;;;2.40;;
12756;SDS011;31601;48.042;12.240;2023-07-20T07:23:38;5.10;;;2.65;;
12756;SDS011;31601;48.042;12.240;2023-07-20T07:26:05;4.38;;;2.47;;
12756;SDS011;31601;48.042;12.240;2023-07-20T07:28:31;4.30;;;2.30;;
12756;SDS011;31601;48.042;12.240;2023-07-20T07:30:58;5.15;;;2.33;;
12756;SDS011;31601;48.042;12.240;2023-07-20T07:33:26;3.83;;;2.28;;
12756;SDS011;31601;48.042;12.240;2023-07-20T07:35:52;6.75;;;2.42;;
12756;SDS011;31601;48.042;12.240;2023-07-20T07:38:19;12.98;;;3.13;;
12756;SDS011;31601;48.042;12.240;2023-07-20T07:40:45;5.03;;;2.63;;
12756;SDS011;31601;48.042;12.240;2023-07-20T07:43:12;5.40;;;2.40;;
12756;SDS011;31601;48.042;12.240;2023-07-20T07:45:39;5.68;;;2.55;;
12756;SDS011;31601;48.042;12.240;2023-07-20T07:48:06;3.67;;;2.22;;
12756;SDS011;31601;48.042;12.240;2023-07-20T07:50:34;5.35;;;2.60;;
12756;SDS011;31601;48.042;12.240;2023-07-20T07:53:00;4.38;;;2.40;;
12756;SDS011;31601;48.042;12.240;2023-07-20T07:55:28;4.78;;;2.25;;
12756;SDS011;31601;48.042;12.240;2023-07-20T07:57:54;6.75;;;2.70;;
12756;SDS011;31601;48.042;12.240;2023-07-20T08:00:21;4.60;;;2.47;;
12756;SDS011;31601;48.042;12.240;2023-07-20T08:02:49;4.65;;;2.20;;
12756;SDS011;31601;48.042;12.240;2023-07-20T08:05:16;9.90;;;2.35;;
12756;SDS011;31601;48.042;12.240;2023-07-20T08:07:44;4.47;;;2.17;;
12756;SDS011;31601;48.042;12.240;2023-07-20T08:10:11;4.45;;;2.33;;
12756;SDS011;31601;48.042;12.240;2023-07-20T08:12:38;4.72;;;2.13;;
12756;SDS011;31601;48.042;12.240;2023-07-20T08:15:04;4.63;;;2.33;;
12756;SDS011;31601;48.042;12.240;2023-07-20T08:17:31;7.80;;;2.33;;
12756;SDS011;31601;48.042;12.240;2023-07-20T08:19:58;5.43;;;2.42;;
12756;SDS011;31601;48.042;12.240;2023-07-20T08:22:25;3.42;;;2.00;;
12756;SDS011;31601;48.042;12.240;2023-07-20T08:24:53;5.30;;;2.20;;
12756;SDS011;31601;48.042;12.240;2023-07-20T08:27:19;4.45;;;2.10;;
12756;SDS011;31601;48.042;12.240;2023-07-20T08:29:45;4.38;;;2.47;;
12756;SDS011;31601;48.042;12.240;2023-07-20T08:32:12;2.78;;;2.00;;
12756;SDS011;31601;48.042;12.240;2023-07-20T08:34:39;5.30;;;2.22;;
12756;SDS011;31601;48.042;12.240;2023-07-20T08:37:06;3.42;;;2.15;;
12756;SDS011;31601;48.042;12.240;2023-07-20T08:39:35;4.18;;;2.25;;
12756;SDS011;31601;48.042;12.240;2023-07-20T08:42:03;6.65;;;2.00;;
12756;SDS011;31601;48.042;12.240;2023-07-20T08:44:32;3.85;;;2.25;;
12756;SDS011;31601;48.042;12.240;2023-07-20T08:46:58;4.50;;;2.50;;
12756;SDS011;31601;48.042;12.240;2023-07-20T08:49:27;4.47;;;2.17;;
12756;SDS011;31601;48.042;12.240;2023-07-20T08:51:54;4.18;;;2.20;;
12756;SDS011;31601;48.042;12.240;2023-07-20T08:54:20;3.22;;;2.17;;
12756;SDS011;31601;48.042;12.240;2023-07-20T08:56:47;3.83;;;1.90;;
12756;SDS011;31601;48.042;12.240;2023-07-20T08:59:16;4.45;;;1.95;;
12756;SDS011;31601;48.042;12.240;2023-07-20T09:01:44;6.93;;;2.58;;
12756;SDS011;31601;48.042;12.240;2023-07-20T09:04:11;4.68;;;2.05;;
12756;SDS011;31601;48.042;12.240;2023-07-20T09:06:37;4.18;;;1.80;;
12756;SDS011;31601;48.042;12.240;2023-07-20T09:09:04;4.18;;;1.98;;
12756;SDS011;31601;48.042;12.240;2023-07-20T09:11:31;5.40;;;2.08;;
12756;SDS011;31601;48.042;12.240;2023-07-20T09:14:03;4.40;;;2.28;;
12756;SDS011;31601;48.042;12.240;2023-07-20T09:16:32;3.33;;;1.92;;
12756;SDS011;31601;48.042;12.240;2023-07-20T09:19:12;3.13;;;2.00;;
12756;SDS011;31601;48.042;12.240;2023-07-20T09:21:40;3.80;;;1.73;;
12756;SDS011;31601;48.042;12.240;2023-07-20T09:24:07;3.10;;;2.00;;
12756;SDS011;31601;48.042;12.240;2023-07-20T09:26:35;3.58;;;1.83;;
12756;SDS011;31601;48.042;12.240;2023-07-20T09:29:07;4.63;;;2.08;;
12756;SDS011;31601;48.042;12.240;2023-07-20T09:31:35;2.40;;;1.90;;
12756;SDS011;31601;48.042;12.240;2023-07-20T09:34:01;3.88;;;1.98;;
12756;SDS011;31601;48.042;12.240;2023-07-20T09:36:28;4.82;;;2.28;;
12756;SDS011;31601;48.042;12.240;2023-07-20T09:38:56;3.83;;;2.17;;
12756;SDS011;31601;48.042;12.240;2023-07-20T09:41:25;2.90;;;1.90;;
12756;SDS011;31601;48.042;12.240;2023-07-20T09:43:51;3.63;;;2.10;;
12756;SDS011;31601;48.042;12.240;2023-07-20T09:46:19;4.97;;;2.00;;
12756;SDS011;31601;48.042;12.240;2023-07-20T09:48:52;5.95;;;1.73;;
12756;SDS011;31601;48.042;12.240;2023-07-20T09:51:19;3.40;;;1.90;;
12756;SDS011;31601;48.042;12.240;2023-07-20T09:53:48;5.00;;;1.90;;
12756;SDS011;31601;48.042;12.240;2023-07-20T09:56:15;3.85;;;1.77;;
12756;SDS011;31601;48.042;12.240;2023-07-20T09:58:43;2.63;;;2.13;;
12756;SDS011;31601;48.042;12.240;2023-07-20T10:01:11;7.20;;;2.00;;
12756;SDS011;31601;48.042;12.240;2023-07-20T10:03:41;3.85;;;2.40;;
12756;SDS011;31601;48.042;12.240;2023-07-20T10:06:14;3.38;;;1.95;;
12756;SDS011;31601;48.042;12.240;2023-07-20T10:08:44;4.45;;;2.00;;
12756;SDS011;31601;48.042;12.240;2023-07-20T10:11:13;6.75;;;1.90;;
12756;SDS011;31601;48.042;12.240;2023-07-20T10:13:42;5.90;;;1.75;;
12756;SDS011;31601;48.042;12.240;2023-07-20T10:16:10;4.80;;;2.03;;
12756;SDS011;31601;48.042;12.240;2023-07-20T10:18:38;4.80;;;1.90;;
12756;SDS011;31601;48.042;12.240;2023-07-20T10:21:14;3.25;;;2.03;;
12756;SDS011;31601;48.042;12.240;2023-07-20T10:23:43;5.10;;;2.10;;
12756;SDS011;31601;48.042;12.240;2023-07-20T10:26:11;4.00;;;1.83;;
12756;SDS011;31601;48.042;12.240;2023-07-20T10:28:39;5.47;;;1.90;;
12756;SDS011;31601;48.042;12.240;2023-07-20T10:31:07;3.13;;;1.83;;
12756;SDS011;31601;48.042;12.240;2023-07-20T10:33:34;2.97;;;1.80;;
12756;SDS011;31601;48.042;12.240;2023-07-20T10:36:02;2.85;;;1.90;;
12756;SDS011;31601;48.042;12.240;2023-07-20T10:38:41;3.80;;;2.10;;
12756;SDS011;31601;48.042;12.240;2023-07-20T10:41:18;3.95;;;1.98;;
12756;SDS011;31601;48.042;12.240;2023-07-20T10:43:46;6.25;;;2.13;;
12756;SDS011;31601;48.042;12.240;2023-07-20T10:46:13;2.45;;;2.13;;
12756;SDS011;31601;48.042;12.240;2023-07-20T10:48:58;8.65;;;2.00;;
12756;SDS011;31601;48.042;12.240;2023-07-20T10:51:25;4.35;;;2.15;;
12756;SDS011;31601;48.042;12.240;2023-07-20T10:53:53;3.92;;;2.03;;
12756;SDS011;31601;48.042;12.240;2023-07-20T10:56:23;3.25;;;1.95;;
12756;SDS011;31601;48.042;12.240;2023-07-20T10:58:55;2.67;;;1.75;;
12756;SDS011;31601;48.042;12.240;2023-07-20T11:01:27;4.57;;;2.00;;
12756;SDS011;31601;48.042;12.240;2023-07-20T11:03:56;4.22;;;2.20;;
12756;SDS011;31601;48.042;12.240;2023-07-20T11:06:31;4.70;;;2.10;;
12756;SDS011;31601;48.042;12.240;2023-07-20T11:09:08;2.58;;;1.83;;
12756;SDS011;31601;48.042;12.240;2023-07-20T11:11:37;4.55;;;2.10;;
12756;SDS011;31601;48.042;12.240;2023-07-20T11:14:04;1.90;;;1.65;;
12756;SDS011;31601;48.042;12.240;2023-07-20T11:16:36;2.78;;;1.63;;
12756;SDS011;31601;48.042;12.240;2023-07-20T11:19:04;4.60;;;2.03;;
12756;SDS011;31601;48.042;12.240;2023-07-20T11:21:35;3.00;;;1.83;;
12756;SDS011;31601;48.042;12.240;2023-07-20T11:24:03;2.35;;;1.58;;
12756;SDS011;31601;48.042;12.240;2023-07-20T11:26:32;3.63;;;1.90;;
12756;SDS011;31601;48.042;12.240;2023-07-20T11:29:06;3.17;;;1.63;;
12756;SDS011;31601;48.042;12.240;2023-07-20T11:31:34;3.58;;;2.10;;
12756;SDS011;31601;48.042;12.240;2023-07-20T11:34:01;2.90;;;1.73;;
12756;SDS011;31601;48.042;12.240;2023-07-20T11:36:27;3.45;;;2.10;;
12756;SDS011;31601;48.042;12.240;2023-07-20T11:38:54;3.10;;;1.80;;
12756;SDS011;31601;48.042;12.240;2023-07-20T11:41:20;3.80;;;2.03;;
12756;SDS011;31601;48.042;12.240;2023-07-20T11:43:48;4.13;;;2.33;;
12756;SDS011;31601;48.042;12.240;2023-07-20T11:46:15;3.58;;;1.60;;
12756;SDS011;31601;48.042;12.240;2023-07-20T11:49:00;2.75;;;1.83;;
12756;SDS011;31601;48.042;12.240;2023-07-20T11:51:27;3.25;;;1.90;;
12756;SDS011;31601;48.042;12.240;2023-07-20T11:53:54;2.78;;;1.58;;
12756;SDS011;31601;48.042;12.240;2023-07-20T11:56:22;5.53;;;1.80;;
12756;SDS011;31601;48.042;12.240;2023-07-20T11:58:50;2.67;;;1.88;;
12756;SDS011;31601;48.042;12.240;2023-07-20T12:01:17;5.60;;;2.25;;
12756;SDS011;31601;48.042;12.240;2023-07-20T12:03:45;2.92;;;1.88;;
12756;SDS011;31601;48.042;12.240;2023-07-20T12:06:12;4.50;;;1.70;;
12756;SDS011;31601;48.042;12.240;2023-07-20T12:08:39;2.53;;;1.73;;
12756;SDS011;31601;48.042;12.240;2023-07-20T12:11:06;2.40;;;1.60;;
12756;SDS011;31601;48.042;12.240;2023-07-20T12:13:37;1.92;;;1.70;;
12756;SDS011;31601;48.042;12.240;2023-07-20T12:16:12;3.20;;;1.67;;
12756;SDS011;31601;48.042;12.240;2023-07-20T12:18:39;2.10;;;1.40;;
12756;SDS011;31601;48.042;12.240;2023-07-20T12:21:06;2.72;;;1.60;;
12756;SDS011;31601;48.042;12.240;2023-07-20T12:23:37;7.72;;;1.63;;
12756;SDS011;31601;48.042;12.240;2023-07-20T12:26:06;2.65;;;1.83;;
12756;SDS011;31601;48.042;12.240;2023-07-20T12:28:35;3.92;;;2.00;;
12756;SDS011;31601;48.042;12.240;2023-07-20T12:31:02;5.20;;;1.73;;
12756;SDS011;31601;48.042;12.240;2023-07-20T12:33:30;2.22;;;1.73;;
12756;SDS011;31601;48.042;12.240;2023-07-20T12:35:56;5.18;;;1.88;;
12756;SDS011;31601;48.042;12.240;2023-07-20T12:38:24;3.33;;;1.67;;
12756;SDS011;31601;48.042;12.240;2023-07-20T12:40:52;4.55;;;1.75;;
12756;SDS011;31601;48.042;12.240;2023-07-20T12:43:20;2.53;;;1.92;;
12756;SDS011;31601;48.042;12.240;2023-07-20T12:45:46;2.35;;;1.60;;
12756;SDS011;31601;48.042;12.240;2023-07-20T12:48:13;2.97;;;1.80;;
12756;SDS011;31601;48.042;12.240;2023-07-20T12:50:40;3.72;;;1.70;;
12756;SDS011;31601;48.042;12.240;2023-07-20T12:53:07;3.78;;;1.58;;
12756;SDS011;31601;48.042;12.240;2023-07-20T12:55:33;2.50;;;1.67;;
12756;SDS011;31601;48.042;12.240;2023-07-20T12:58:00;4.90;;;1.73;;
12756;SDS011;31601;48.042;12.240;2023-07-20T13:00:26;4.00;;;1.70;;
12756;SDS011;31601;48.042;12.240;2023-07-20T13:02:53;5.05;;;1.92;;
12756;SDS011;31601;48.042;12.240;2023-07-20T13:05:19;2.88;;;1.90;;
12756;SDS011;31601;48.042;12.240;2023-07-20T13:07:47;3.22;;;1.90;;
12756;SDS011;31601;48.042;12.240;2023-07-20T13:10:13;3.35;;;1.60;;
12756;SDS011;31601;48.042;12.240;2023-07-20T13:12:40;2.20;;;1.70;;
12756;SDS011;31601;48.042;12.240;2023-07-20T13:15:07;3.08;;;1.95;;
12756;SDS011;31601;48.042;12.240;2023-07-20T13:17:35;3.60;;;1.77;;
12756;SDS011;31601;48.042;12.240;2023-07-20T13:20:02;5.50;;;1.95;;
12756;SDS011;31601;48.042;12.240;2023-07-20T13:22:30;7.70;;;1.90;;
12756;SDS011;31601;48.042;12.240;2023-07-20T13:24:58;3.67;;;1.80;;
12756;SDS011;31601;48.042;12.240;2023-07-20T13:27:24;2.80;;;2.00;;
12756;SDS011;31601;48.042;12.240;2023-07-20T13:29:51;2.75;;;2.28;;
12756;SDS011;31601;48.042;12.240;2023-07-20T13:32:18;4.00;;;1.90;;
12756;SDS011;31601;48.042;12.240;2023-07-20T13:34:45;1.85;;;1.63;;
12756;SDS011;31601;48.042;12.240;2023-07-20T13:37:12;3.17;;;2.10;;
12756;SDS011;31601;48.042;12.240;2023-07-20T13:39:38;4.70;;;1.92;;
12756;SDS011;31601;48.042;12.240;2023-07-20T13:42:07;3.72;;;1.85;;
12756;SDS011;31601;48.042;12.240;2023-07-20T13:44:34;3.50;;;1.90;;
12756;SDS011;31601;48.042;12.240;2023-07-20T13:47:00;3.97;;;2.60;;
12756;SDS011;31601;48.042;12.240;2023-07-20T13:49:27;5.90;;;1.77;;
12756;SDS011;31601;48.042;12.240;2023-07-20T13:51:54;3.47;;;1.90;;
12756;SDS011;31601;48.042;12.240;2023-07-20T13:54:22;6.35;;;1.98;;
12756;SDS011;31601;48.042;12.240;2023-07-20T13:56:48;4.85;;;2.00;;
12756;SDS011;31601;48.042;12.240;2023-07-20T13:59:17;4.10;;;1.80;;
12756;SDS011;31601;48.042;12.240;2023-07-20T14:01:44;3.78;;;1.75;;
12756;SDS011;31601;48.042;12.240;2023-07-20T14:04:11;5.00;;;1.88;;
12756;SDS011;31601;48.042;12.240;2023-07-20T14:06:37;2.08;;;1.60;;
12756;SDS011;31601;48.042;12.240;2023-07-20T14:09:04;3.50;;;2.15;;
12756;SDS011;31601;48.042;12.240;2023-07-20T14:11:30;4.57;;;2.08;;
12756;SDS011;31601;48.042;12.240;2023-07-20T14:13:57;3.47;;;2.08;;
12756;SDS011;31601;48.042;12.240;2023-07-20T14:16:25;1.52;;;1.42;;
12756;SDS011;31601;48.042;12.240;2023-07-20T14:18:52;2.70;;;1.75;;
12756;SDS011;31601;48.042;12.240;2023-07-20T14:21:19;2.75;;;1.73;;
12756;SDS011;31601;48.042;12.240;2023-07-20T14:23:47;7.65;;;2.22;;
12756;SDS011;31601;48.042;12.240;2023-07-20T14:26:15;2.70;;;1.58;;
12756;SDS011;31601;48.042;12.240;2023-07-20T14:28:42;4.85;;;1.85;;
12756;SDS011;31601;48.042;12.240;2023-07-20T14:31:08;6.70;;;2.00;;
12756;SDS011;31601;48.042;12.240;2023-07-20T14:33:36;2.58;;;1.70;;
12756;SDS011;31601;48.042;12.240;2023-07-20T14:36:03;5.40;;;1.80;;
12756;SDS011;31601;48.042;12.240;2023-07-20T14:38:30;3.63;;;1.95;;